sensor_id;sensor_type;location;lat;lon;timestamp;temperature;humidity
65582;DHT22;52231;40.090;18.348;2023-06-14T00:00:00;19.40;86.20
65582;DHT22;52231;40.090;18.348;2023-06-14T00:02:32;19.40;86.10
65582;DHT22;52231;40.090;18.348;2023-06-14T00:05:00;19.30;86.10
65582;DHT22;52231;40.090;18.348;2023-06-14T00:07:36;19.30;86.20
65582;DHT22;52231;40.090;18.348;2023-06-14T00:10:06;19.30;86.40
65582;DHT22;52231;40.090;18.348;2023-06-14T00:12:35;19.30;86.70
65582;DHT22;52231;40.090;18.348;2023-06-14T00:15:04;19.30;86.80
65582;DHT22;52231;40.090;18.348;2023-06-14T00:17:32;19.30;86.80
65582;DHT22;52231;40.090;18.348;2023-06-14T00:20:03;19.30;86.70
65582;DHT22;52231;40.090;18.348;2023-06-14T00:22:35;19.30;86.40
65582;DHT22;52231;40.090;18.348;2023-06-14T00:25:05;19.20;86.40
65582;DHT22;52231;40.090;18.348;2023-06-14T00:27:38;19.20;86.30
65582;DHT22;52231;40.090;18.348;2023-06-14T00:30:07;19.10;86.30
65582;DHT22;52231;40.090;18.348;2023-06-14T00:32:35;19.10;86.40
65582;DHT22;52231;40.090;18.348;2023-06-14T00:35:03;19.10;86.50
65582;DHT22;52231;40.090;18.348;2023-06-14T00:37:32;19.10;86.70
65582;DHT22;52231;40.090;18.348;2023-06-14T00:40:02;19.10;86.80
65582;DHT22;52231;40.090;18.348;2023-06-14T00:42:32;19.10;87.00
65582;DHT22;52231;40.090;18.348;2023-06-14T00:45:00;19.20;87.20
65582;DHT22;52231;40.090;18.348;2023-06-14T00:47:30;19.10;87.00
65582;DHT22;52231;40.090;18.348;2023-06-14T00:49:58;19.10;86.80
65582;DHT22;52231;40.090;18.348;2023-06-14T00:52:26;19.00;86.80
65582;DHT22;52231;40.090;18.348;2023-06-14T00:54:55;19.00;86.70
65582;DHT22;52231;40.090;18.348;2023-06-14T00:57:23;19.00;86.70
65582;DHT22;52231;40.090;18.348;2023-06-14T00:59:51;18.90;86.70
65582;DHT22;52231;40.090;18.348;2023-06-14T01:02:25;18.90;86.60
65582;DHT22;52231;40.090;18.348;2023-06-14T01:04:54;18.90;86.60
65582;DHT22;52231;40.090;18.348;2023-06-14T01:13:49;18.80;86.70
65582;DHT22;52231;40.090;18.348;2023-06-14T01:16:18;18.70;86.70
65582;DHT22;52231;40.090;18.348;2023-06-14T01:18:46;18.70;86.70
65582;DHT22;52231;40.090;18.348;2023-06-14T01:21:23;18.70;86.80
65582;DHT22;52231;40.090;18.348;2023-06-14T01:23:52;18.70;86.90
65582;DHT22;52231;40.090;18.348;2023-06-14T01:26:23;18.70;86.80
65582;DHT22;52231;40.090;18.348;2023-06-14T01:28:52;18.60;86.70
65582;DHT22;52231;40.090;18.348;2023-06-14T01:31:26;18.60;86.70
65582;DHT22;52231;40.090;18.348;2023-06-14T01:33:55;18.60;86.80
65582;DHT22;52231;40.090;18.348;2023-06-14T01:36:26;18.60;86.90
65582;DHT22;52231;40.090;18.348;2023-06-14T01:38:59;18.60;86.90
65582;DHT22;52231;40.090;18.348;2023-06-14T01:41:28;18.60;86.70
65582;DHT22;52231;40.090;18.348;2023-06-14T01:43:58;18.60;86.70
65582;DHT22;52231;40.090;18.348;2023-06-14T01:46:26;18.60;86.50
65582;DHT22;52231;40.090;18.348;2023-06-14T01:48:55;18.50;86.50
65582;DHT22;52231;40.090;18.348;2023-06-14T01:51:23;18.40;86.50
65582;DHT22;52231;40.090;18.348;2023-06-14T01:53:51;18.40;86.60
65582;DHT22;52231;40.090;18.348;2023-06-14T01:56:20;18.40;86.70
65582;DHT22;52231;40.090;18.348;2023-06-14T01:58:49;18.40;86.70
65582;DHT22;52231;40.090;18.348;2023-06-14T02:01:17;18.40;86.70
65582;DHT22;52231;40.090;18.348;2023-06-14T02:03:47;18.40;86.70
65582;DHT22;52231;40.090;18.348;2023-06-14T02:06:16;18.40;86.70
65582;DHT22;52231;40.090;18.348;2023-06-14T02:08:44;18.30;86.80
65582;DHT22;52231;40.090;18.348;2023-06-14T02:11:13;18.30;86.90
65582;DHT22;52231;40.090;18.348;2023-06-14T02:13:41;18.30;87.10
65582;DHT22;52231;40.090;18.348;2023-06-14T02:16:09;18.30;87.30
65582;DHT22;52231;40.090;18.348;2023-06-14T02:18:38;18.30;87.40
65582;DHT22;52231;40.090;18.348;2023-06-14T02:21:06;18.40;87.60
65582;DHT22;52231;40.090;18.348;2023-06-14T02:23:34;18.40;87.60
65582;DHT22;52231;40.090;18.348;2023-06-14T02:26:03;18.40;87.70
65582;DHT22;52231;40.090;18.348;2023-06-14T02:28:31;18.40;87.70
65582;DHT22;52231;40.090;18.348;2023-06-14T02:30:59;18.40;87.80
65582;DHT22;52231;40.090;18.348;2023-06-14T02:33:28;18.40;87.90
65582;DHT22;52231;40.090;18.348;2023-06-14T02:35:56;18.40;88.10
65582;DHT22;52231;40.090;18.348;2023-06-14T02:38:24;18.40;88.10
65582;DHT22;52231;40.090;18.348;2023-06-14T02:40:53;18.30;88.00
65582;DHT22;52231;40.090;18.348;2023-06-14T02:43:21;18.30;88.10
65582;DHT22;52231;40.090;18.348;2023-06-14T02:45:49;18.30;88.10
65582;DHT22;52231;40.090;18.348;2023-06-14T02:48:17;18.30;88.10
65582;DHT22;52231;40.090;18.348;2023-06-14T02:50:45;18.30;88.20
65582;DHT22;52231;40.090;18.348;2023-06-14T02:53:14;18.30;88.20
65582;DHT22;52231;40.090;18.348;2023-06-14T02:55:42;18.30;88.20
65582;DHT22;52231;40.090;18.348;2023-06-14T02:58:10;18.30;88.20
65582;DHT22;52231;40.090;18.348;2023-06-14T03:00:38;18.20;88.20
65582;DHT22;52231;40.090;18.348;2023-06-14T03:03:09;18.20;88.20
65582;DHT22;52231;40.090;18.348;2023-06-14T03:05:47;18.20;88.30
65582;DHT22;52231;40.090;18.348;2023-06-14T03:08:22;18.10;88.40
65582;DHT22;52231;40.090;18.348;2023-06-14T03:10:56;18.20;88.50
65582;DHT22;52231;40.090;18.348;2023-06-14T03:13:25;18.20;88.60
65582;DHT22;52231;40.090;18.348;2023-06-14T03:15:54;18.20;88.70
65582;DHT22;52231;40.090;18.348;2023-06-14T03:18:25;18.20;88.70
65582;DHT22;52231;40.090;18.348;2023-06-14T03:20:57;18.20;88.70
65582;DHT22;52231;40.090;18.348;2023-06-14T03:23:27;18.30;88.80
65582;DHT22;52231;40.090;18.348;2023-06-14T03:25:56;18.30;88.80
65582;DHT22;52231;40.090;18.348;2023-06-14T03:28:24;18.30;88.70
65582;DHT22;52231;40.090;18.348;2023-06-14T03:30:55;18.30;88.70
65582;DHT22;52231;40.090;18.348;2023-06-14T03:33:25;18.30;88.70
65582;DHT22;52231;40.090;18.348;2023-06-14T03:35:54;18.30;88.80
65582;DHT22;52231;40.090;18.348;2023-06-14T03:38:24;18.40;88.80
65582;DHT22;52231;40.090;18.348;2023-06-14T03:40:53;18.40;88.80
65582;DHT22;52231;40.090;18.348;2023-06-14T03:43:21;18.50;88.80
65582;DHT22;52231;40.090;18.348;2023-06-14T03:45:50;18.60;88.60
65582;DHT22;52231;40.090;18.348;2023-06-14T03:48:24;18.60;88.50
65582;DHT22;52231;40.090;18.348;2023-06-14T03:50:53;18.80;88.50
65582;DHT22;52231;40.090;18.348;2023-06-14T03:53:24;19.00;88.40
65582;DHT22;52231;40.090;18.348;2023-06-14T03:55:54;19.20;88.20
65582;DHT22;52231;40.090;18.348;2023-06-14T03:58:25;19.40;88.10
65582;DHT22;52231;40.090;18.348;2023-06-14T04:00:53;19.70;87.70
65582;DHT22;52231;40.090;18.348;2023-06-14T04:03:21;20.10;87.30
65582;DHT22;52231;40.090;18.348;2023-06-14T04:05:57;20.50;86.70
65582;DHT22;52231;40.090;18.348;2023-06-14T04:08:28;21.10;85.80
65582;DHT22;52231;40.090;18.348;2023-06-14T04:10:58;21.90;84.60
65582;DHT22;52231;40.090;18.348;2023-06-14T04:13:26;23.00;82.10
65582;DHT22;52231;40.090;18.348;2023-06-14T04:15:55;24.00;78.70
65582;DHT22;52231;40.090;18.348;2023-06-14T04:18:31;25.10;75.80
65582;DHT22;52231;40.090;18.348;2023-06-14T04:20:59;26.10;72.30
65582;DHT22;52231;40.090;18.348;2023-06-14T04:23:29;26.90;70.00
65582;DHT22;52231;40.090;18.348;2023-06-14T04:25:58;27.80;66.30
65582;DHT22;52231;40.090;18.348;2023-06-14T04:28:30;28.50;63.70
65582;DHT22;52231;40.090;18.348;2023-06-14T04:31:01;29.10;61.30
65582;DHT22;52231;40.090;18.348;2023-06-14T04:33:32;29.70;58.90
65582;DHT22;52231;40.090;18.348;2023-06-14T04:36:00;30.10;57.20
65582;DHT22;52231;40.090;18.348;2023-06-14T04:38:28;30.60;55.70
65582;DHT22;52231;40.090;18.348;2023-06-14T04:40:57;31.00;54.30
65582;DHT22;52231;40.090;18.348;2023-06-14T04:43:30;31.40;53.20
65582;DHT22;52231;40.090;18.348;2023-06-14T04:45:59;31.80;51.70
65582;DHT22;52231;40.090;18.348;2023-06-14T04:48:31;32.10;50.70
65582;DHT22;52231;40.090;18.348;2023-06-14T04:51:00;32.30;50.20
65582;DHT22;52231;40.090;18.348;2023-06-14T04:53:28;32.50;50.00
65582;DHT22;52231;40.090;18.348;2023-06-14T04:55:57;32.80;49.90
65582;DHT22;52231;40.090;18.348;2023-06-14T04:58:27;33.00;49.80
65582;DHT22;52231;40.090;18.348;2023-06-14T05:00:56;33.20;49.60
65582;DHT22;52231;40.090;18.348;2023-06-14T05:03:27;33.10;49.90
65582;DHT22;52231;40.090;18.348;2023-06-14T05:05:55;32.90;50.50
65582;DHT22;52231;40.090;18.348;2023-06-14T05:08:23;32.40;51.70
65582;DHT22;52231;40.090;18.348;2023-06-14T05:10:53;32.10;52.70
65582;DHT22;52231;40.090;18.348;2023-06-14T05:13:22;31.60;54.40
65582;DHT22;52231;40.090;18.348;2023-06-14T05:15:50;31.30;55.40
65582;DHT22;52231;40.090;18.348;2023-06-14T05:18:25;31.20;55.80
65582;DHT22;52231;40.090;18.348;2023-06-14T05:20:53;30.80;57.10
65582;DHT22;52231;40.090;18.348;2023-06-14T05:23:30;30.70;57.30
65582;DHT22;52231;40.090;18.348;2023-06-14T05:26:19;30.60;57.60
65582;DHT22;52231;40.090;18.348;2023-06-14T05:28:46;30.70;57.30
65582;DHT22;52231;40.090;18.348;2023-06-14T05:31:14;30.90;57.10
65582;DHT22;52231;40.090;18.348;2023-06-14T05:33:43;30.20;58.00
65582;DHT22;52231;40.090;18.348;2023-06-14T05:36:11;30.00;59.10
65582;DHT22;52231;40.090;18.348;2023-06-14T05:38:40;30.00;59.30
65582;DHT22;52231;40.090;18.348;2023-06-14T05:41:15;30.10;59.30
65582;DHT22;52231;40.090;18.348;2023-06-14T05:43:43;30.00;59.60
65582;DHT22;52231;40.090;18.348;2023-06-14T05:46:11;29.60;59.40
65582;DHT22;52231;40.090;18.348;2023-06-14T05:48:40;29.40;60.80
65582;DHT22;52231;40.090;18.348;2023-06-14T05:51:08;29.80;59.60
65582;DHT22;52231;40.090;18.348;2023-06-14T05:53:36;30.20;58.10
65582;DHT22;52231;40.090;18.348;2023-06-14T05:56:04;30.80;57.00
65582;DHT22;52231;40.090;18.348;2023-06-14T05:58:32;31.40;55.30
65582;DHT22;52231;40.090;18.348;2023-06-14T06:01:01;31.90;54.20
65582;DHT22;52231;40.090;18.348;2023-06-14T06:03:30;32.00;53.90
65582;DHT22;52231;40.090;18.348;2023-06-14T06:05:59;31.90;53.20
65582;DHT22;52231;40.090;18.348;2023-06-14T06:08:27;32.00;53.10
65582;DHT22;52231;40.090;18.348;2023-06-14T06:10:56;31.90;52.50
65582;DHT22;52231;40.090;18.348;2023-06-14T06:13:24;31.70;53.30
65582;DHT22;52231;40.090;18.348;2023-06-14T06:15:52;31.40;54.00
65582;DHT22;52231;40.090;18.348;2023-06-14T06:18:22;31.30;52.80
65582;DHT22;52231;40.090;18.348;2023-06-14T06:20:51;30.90;53.80
65582;DHT22;52231;40.090;18.348;2023-06-14T06:23:19;31.00;54.40
65582;DHT22;52231;40.090;18.348;2023-06-14T06:25:47;31.60;53.60
65582;DHT22;52231;40.090;18.348;2023-06-14T06:28:15;31.70;53.00
65582;DHT22;52231;40.090;18.348;2023-06-14T06:30:43;31.40;51.70
65582;DHT22;52231;40.090;18.348;2023-06-14T06:33:12;31.30;52.50
65582;DHT22;52231;40.090;18.348;2023-06-14T06:35:41;31.30;52.50
65582;DHT22;52231;40.090;18.348;2023-06-14T06:38:09;30.60;52.90
65582;DHT22;52231;40.090;18.348;2023-06-14T06:40:37;30.00;54.90
65582;DHT22;52231;40.090;18.348;2023-06-14T06:43:06;30.20;55.00
65582;DHT22;52231;40.090;18.348;2023-06-14T06:45:41;30.50;53.10
65582;DHT22;52231;40.090;18.348;2023-06-14T06:48:09;30.90;51.70
65582;DHT22;52231;40.090;18.348;2023-06-14T06:50:38;30.90;53.20
65582;DHT22;52231;40.090;18.348;2023-06-14T06:53:06;31.30;52.30
65582;DHT22;52231;40.090;18.348;2023-06-14T06:55:34;31.50;51.20
65582;DHT22;52231;40.090;18.348;2023-06-14T06:58:03;31.10;51.20
65582;DHT22;52231;40.090;18.348;2023-06-14T07:00:33;30.90;52.40
65582;DHT22;52231;40.090;18.348;2023-06-14T07:03:01;31.10;53.00
65582;DHT22;52231;40.090;18.348;2023-06-14T07:05:29;31.00;51.20
65582;DHT22;52231;40.090;18.348;2023-06-14T07:07:57;31.10;50.00
65582;DHT22;52231;40.090;18.348;2023-06-14T07:10:25;31.30;50.20
65582;DHT22;52231;40.090;18.348;2023-06-14T07:12:57;31.60;50.70
65582;DHT22;52231;40.090;18.348;2023-06-14T07:15:25;31.80;50.50
65582;DHT22;52231;40.090;18.348;2023-06-14T07:17:53;31.10;52.00
65582;DHT22;52231;40.090;18.348;2023-06-14T07:20:21;31.00;52.90
65582;DHT22;52231;40.090;18.348;2023-06-14T07:22:52;30.70;53.60
65582;DHT22;52231;40.090;18.348;2023-06-14T07:25:20;30.90;53.10
65582;DHT22;52231;40.090;18.348;2023-06-14T07:27:50;31.10;51.80
65582;DHT22;52231;40.090;18.348;2023-06-14T07:30:18;31.40;50.90
65582;DHT22;52231;40.090;18.348;2023-06-14T07:32:47;31.80;50.60
65582;DHT22;52231;40.090;18.348;2023-06-14T07:35:15;31.80;49.70
65582;DHT22;52231;40.090;18.348;2023-06-14T07:37:43;31.60;50.50
65582;DHT22;52231;40.090;18.348;2023-06-14T07:40:12;31.70;47.90
65582;DHT22;52231;40.090;18.348;2023-06-14T07:42:41;31.90;48.90
65582;DHT22;52231;40.090;18.348;2023-06-14T07:45:11;32.00;49.10
65582;DHT22;52231;40.090;18.348;2023-06-14T07:47:40;32.30;47.90
65582;DHT22;52231;40.090;18.348;2023-06-14T07:50:09;32.80;47.20
65582;DHT22;52231;40.090;18.348;2023-06-14T07:52:38;33.00;46.00
65582;DHT22;52231;40.090;18.348;2023-06-14T07:55:06;33.20;46.50
65582;DHT22;52231;40.090;18.348;2023-06-14T07:57:35;33.00;47.20
65582;DHT22;52231;40.090;18.348;2023-06-14T08:00:03;33.00;46.30
65582;DHT22;52231;40.090;18.348;2023-06-14T08:02:44;32.80;47.60
65582;DHT22;52231;40.090;18.348;2023-06-14T08:05:13;32.60;47.30
65582;DHT22;52231;40.090;18.348;2023-06-14T08:07:41;32.50;47.30
65582;DHT22;52231;40.090;18.348;2023-06-14T08:10:10;32.60;47.40
65582;DHT22;52231;40.090;18.348;2023-06-14T08:12:38;32.70;46.90
65582;DHT22;52231;40.090;18.348;2023-06-14T08:15:06;32.90;46.60
65582;DHT22;52231;40.090;18.348;2023-06-14T08:17:40;33.00;45.50
65582;DHT22;52231;40.090;18.348;2023-06-14T08:20:09;33.20;46.80
65582;DHT22;52231;40.090;18.348;2023-06-14T08:22:39;33.40;46.10
65582;DHT22;52231;40.090;18.348;2023-06-14T08:25:10;33.40;45.70
65582;DHT22;52231;40.090;18.348;2023-06-14T08:27:40;32.70;46.30
65582;DHT22;52231;40.090;18.348;2023-06-14T08:30:09;32.00;49.50
65582;DHT22;52231;40.090;18.348;2023-06-14T08:32:37;32.50;48.90
65582;DHT22;52231;40.090;18.348;2023-06-14T08:35:06;32.10;47.10
65582;DHT22;52231;40.090;18.348;2023-06-14T08:37:39;32.30;48.40
65582;DHT22;52231;40.090;18.348;2023-06-14T08:40:21;32.00;48.30
65582;DHT22;52231;40.090;18.348;2023-06-14T08:42:51;32.40;47.40
65582;DHT22;52231;40.090;18.348;2023-06-14T08:45:24;32.70;46.30
65582;DHT22;52231;40.090;18.348;2023-06-14T08:47:53;32.30;47.50
65582;DHT22;52231;40.090;18.348;2023-06-14T08:50:26;32.40;48.40
65582;DHT22;52231;40.090;18.348;2023-06-14T08:53:00;33.00;47.70
65582;DHT22;52231;40.090;18.348;2023-06-14T08:55:31;33.20;46.60
65582;DHT22;52231;40.090;18.348;2023-06-14T08:58:03;32.90;46.80
65582;DHT22;52231;40.090;18.348;2023-06-14T09:00:33;32.70;47.70
65582;DHT22;52231;40.090;18.348;2023-06-14T09:03:02;32.50;48.20
65582;DHT22;52231;40.090;18.348;2023-06-14T09:05:31;32.60;48.60
65582;DHT22;52231;40.090;18.348;2023-06-14T09:07:59;33.10;47.10
65582;DHT22;52231;40.090;18.348;2023-06-14T09:10:32;33.40;46.80
65582;DHT22;52231;40.090;18.348;2023-06-14T09:13:03;33.00;48.20
65582;DHT22;52231;40.090;18.348;2023-06-14T09:15:32;33.10;47.50
65582;DHT22;52231;40.090;18.348;2023-06-14T09:18:03;33.00;47.00
65582;DHT22;52231;40.090;18.348;2023-06-14T09:20:32;32.70;47.30
65582;DHT22;52231;40.090;18.348;2023-06-14T09:23:01;32.40;48.40
65582;DHT22;52231;40.090;18.348;2023-06-14T09:25:29;32.40;49.80
65582;DHT22;52231;40.090;18.348;2023-06-14T09:28:07;32.40;48.30
65582;DHT22;52231;40.090;18.348;2023-06-14T09:30:37;31.80;50.30
65582;DHT22;52231;40.090;18.348;2023-06-14T09:33:05;31.90;51.40
65582;DHT22;52231;40.090;18.348;2023-06-14T09:35:34;32.40;49.80
65582;DHT22;52231;40.090;18.348;2023-06-14T09:38:02;32.40;49.00
65582;DHT22;52231;40.090;18.348;2023-06-14T09:40:34;32.30;49.30
65582;DHT22;52231;40.090;18.348;2023-06-14T09:43:06;31.80;51.30
65582;DHT22;52231;40.090;18.348;2023-06-14T09:45:38;31.90;50.40
65582;DHT22;52231;40.090;18.348;2023-06-14T09:48:08;31.60;50.20
65582;DHT22;52231;40.090;18.348;2023-06-14T09:50:39;31.80;50.60
65582;DHT22;52231;40.090;18.348;2023-06-14T09:53:10;32.10;49.90
65582;DHT22;52231;40.090;18.348;2023-06-14T09:55:40;32.00;50.00
65582;DHT22;52231;40.090;18.348;2023-06-14T09:58:10;31.80;51.30
65582;DHT22;52231;40.090;18.348;2023-06-14T10:00:40;32.00;51.60
65582;DHT22;52231;40.090;18.348;2023-06-14T10:03:14;32.20;50.90
65582;DHT22;52231;40.090;18.348;2023-06-14T10:05:45;32.90;48.90
65582;DHT22;52231;40.090;18.348;2023-06-14T10:08:17;33.40;47.80
65582;DHT22;52231;40.090;18.348;2023-06-14T10:10:46;33.30;48.80
65582;DHT22;52231;40.090;18.348;2023-06-14T10:13:14;33.50;48.10
65582;DHT22;52231;40.090;18.348;2023-06-14T10:18:31;33.70;47.60
65582;DHT22;52231;40.090;18.348;2023-06-14T10:21:26;33.40;46.60
65582;DHT22;52231;40.090;18.348;2023-06-14T10:23:59;33.80;47.10
65582;DHT22;52231;40.090;18.348;2023-06-14T10:26:29;33.40;46.90
65582;DHT22;52231;40.090;18.348;2023-06-14T10:28:59;33.10;48.60
65582;DHT22;52231;40.090;18.348;2023-06-14T10:31:56;33.30;47.50
65582;DHT22;52231;40.090;18.348;2023-06-14T10:34:29;33.10;48.70
65582;DHT22;52231;40.090;18.348;2023-06-14T10:39:39;34.30;46.30
65582;DHT22;52231;40.090;18.348;2023-06-14T10:42:09;34.40;45.60
65582;DHT22;52231;40.090;18.348;2023-06-14T10:44:40;33.90;46.80
65582;DHT22;52231;40.090;18.348;2023-06-14T10:47:21;33.60;48.10
65582;DHT22;52231;40.090;18.348;2023-06-14T10:49:52;33.80;48.20
65582;DHT22;52231;40.090;18.348;2023-06-14T10:52:26;33.60;47.70
65582;DHT22;52231;40.090;18.348;2023-06-14T10:55:07;33.20;48.30
65582;DHT22;52231;40.090;18.348;2023-06-14T10:57:51;32.80;49.10
65582;DHT22;52231;40.090;18.348;2023-06-14T11:00:23;32.10;50.10
65582;DHT22;52231;40.090;18.348;2023-06-14T11:05:26;30.80;53.80
65582;DHT22;52231;40.090;18.348;2023-06-14T11:08:09;31.60;52.20
65582;DHT22;52231;40.090;18.348;2023-06-14T11:10:44;32.70;50.20
65582;DHT22;52231;40.090;18.348;2023-06-14T11:13:16;33.20;47.90
65582;DHT22;52231;40.090;18.348;2023-06-14T11:15:47;33.40;46.90
65582;DHT22;52231;40.090;18.348;2023-06-14T11:18:15;33.10;47.30
65582;DHT22;52231;40.090;18.348;2023-06-14T11:20:46;33.00;47.70
65582;DHT22;52231;40.090;18.348;2023-06-14T11:23:14;32.80;48.00
65582;DHT22;52231;40.090;18.348;2023-06-14T11:25:42;33.40;47.30
65582;DHT22;52231;40.090;18.348;2023-06-14T11:28:11;33.40;46.60
65582;DHT22;52231;40.090;18.348;2023-06-14T11:30:39;32.60;48.50
65582;DHT22;52231;40.090;18.348;2023-06-14T11:33:10;33.10;47.40
65582;DHT22;52231;40.090;18.348;2023-06-14T11:35:39;32.80;47.70
65582;DHT22;52231;40.090;18.348;2023-06-14T11:38:07;31.80;49.30
65582;DHT22;52231;40.090;18.348;2023-06-14T11:40:38;31.80;50.60
65582;DHT22;52231;40.090;18.348;2023-06-14T11:43:06;32.60;48.40
65582;DHT22;52231;40.090;18.348;2023-06-14T11:45:34;33.00;47.90
65582;DHT22;52231;40.090;18.348;2023-06-14T11:48:03;32.30;49.20
65582;DHT22;52231;40.090;18.348;2023-06-14T11:50:31;32.10;50.20
65582;DHT22;52231;40.090;18.348;2023-06-14T11:53:01;32.10;50.30
65582;DHT22;52231;40.090;18.348;2023-06-14T11:55:38;32.00;50.60
65582;DHT22;52231;40.090;18.348;2023-06-14T11:58:09;31.80;50.60
65582;DHT22;52231;40.090;18.348;2023-06-14T12:00:38;31.70;51.60
65582;DHT22;52231;40.090;18.348;2023-06-14T12:03:06;31.40;51.90
65582;DHT22;52231;40.090;18.348;2023-06-14T12:05:35;31.10;52.20
65582;DHT22;52231;40.090;18.348;2023-06-14T12:08:03;30.90;53.10
65582;DHT22;52231;40.090;18.348;2023-06-14T12:10:41;31.30;53.10
65582;DHT22;52231;40.090;18.348;2023-06-14T12:13:11;32.80;47.10
65582;DHT22;52231;40.090;18.348;2023-06-14T12:15:40;33.80;45.10
65582;DHT22;52231;40.090;18.348;2023-06-14T12:18:10;33.60;45.00
65582;DHT22;52231;40.090;18.348;2023-06-14T12:20:39;33.30;45.50
65582;DHT22;52231;40.090;18.348;2023-06-14T12:23:07;32.90;46.00
65582;DHT22;52231;40.090;18.348;2023-06-14T12:25:38;33.10;44.90
65582;DHT22;52231;40.090;18.348;2023-06-14T12:28:09;34.00;44.00
65582;DHT22;52231;40.090;18.348;2023-06-14T12:30:38;35.00;41.40
65582;DHT22;52231;40.090;18.348;2023-06-14T12:33:19;35.40;43.00
65582;DHT22;52231;40.090;18.348;2023-06-14T12:36:09;34.60;42.20
65582;DHT22;52231;40.090;18.348;2023-06-14T12:38:38;33.80;45.30
65582;DHT22;52231;40.090;18.348;2023-06-14T12:41:06;33.30;47.60
65582;DHT22;52231;40.090;18.348;2023-06-14T12:43:35;33.90;46.20
65582;DHT22;52231;40.090;18.348;2023-06-14T12:46:12;33.70;47.20
65582;DHT22;52231;40.090;18.348;2023-06-14T12:48:40;33.30;47.50
65582;DHT22;52231;40.090;18.348;2023-06-14T12:51:08;32.40;49.80
65582;DHT22;52231;40.090;18.348;2023-06-14T12:53:36;31.90;51.50
65582;DHT22;52231;40.090;18.348;2023-06-14T12:56:04;32.50;50.60
65582;DHT22;52231;40.090;18.348;2023-06-14T12:58:33;32.10;50.40
65582;DHT22;52231;40.090;18.348;2023-06-14T13:01:01;31.30;52.30
65582;DHT22;52231;40.090;18.348;2023-06-14T13:03:29;30.80;54.60
65582;DHT22;52231;40.090;18.348;2023-06-14T13:05:57;31.30;54.10
65582;DHT22;52231;40.090;18.348;2023-06-14T13:08:25;31.80;52.70
65582;DHT22;52231;40.090;18.348;2023-06-14T13:10:53;32.00;52.10
65582;DHT22;52231;40.090;18.348;2023-06-14T13:13:23;31.60;52.90
65582;DHT22;52231;40.090;18.348;2023-06-14T13:15:57;31.60;53.30
65582;DHT22;52231;40.090;18.348;2023-06-14T13:18:42;32.30;52.00
65582;DHT22;52231;40.090;18.348;2023-06-14T13:21:10;32.00;51.40
65582;DHT22;52231;40.090;18.348;2023-06-14T13:23:38;31.10;53.30
65582;DHT22;52231;40.090;18.348;2023-06-14T13:26:07;30.80;54.50
65582;DHT22;52231;40.090;18.348;2023-06-14T13:28:35;31.10;53.60
65582;DHT22;52231;40.090;18.348;2023-06-14T13:31:03;31.10;53.70
65582;DHT22;52231;40.090;18.348;2023-06-14T13:33:31;30.90;54.20
65582;DHT22;52231;40.090;18.348;2023-06-14T13:36:00;31.10;54.10
65582;DHT22;52231;40.090;18.348;2023-06-14T13:38:28;30.80;54.50
65582;DHT22;52231;40.090;18.348;2023-06-14T13:40:56;30.50;55.20
65582;DHT22;52231;40.090;18.348;2023-06-14T13:43:24;30.40;55.80
65582;DHT22;52231;40.090;18.348;2023-06-14T13:45:52;30.10;56.70
65582;DHT22;52231;40.090;18.348;2023-06-14T13:48:20;29.80;57.20
65582;DHT22;52231;40.090;18.348;2023-06-14T13:50:49;30.00;57.00
65582;DHT22;52231;40.090;18.348;2023-06-14T13:53:17;29.90;57.10
65582;DHT22;52231;40.090;18.348;2023-06-14T13:55:45;29.70;58.00
65582;DHT22;52231;40.090;18.348;2023-06-14T13:58:14;29.80;57.40
65582;DHT22;52231;40.090;18.348;2023-06-14T14:00:43;29.60;58.20
65582;DHT22;52231;40.090;18.348;2023-06-14T14:03:11;29.30;59.00
65582;DHT22;52231;40.090;18.348;2023-06-14T14:05:39;29.30;57.80
65582;DHT22;52231;40.090;18.348;2023-06-14T14:08:07;29.10;58.20
65582;DHT22;52231;40.090;18.348;2023-06-14T14:10:38;29.10;58.60
65582;DHT22;52231;40.090;18.348;2023-06-14T14:13:07;28.90;59.20
65582;DHT22;52231;40.090;18.348;2023-06-14T14:15:35;28.90;59.40
65582;DHT22;52231;40.090;18.348;2023-06-14T14:18:03;29.00;59.30
65582;DHT22;52231;40.090;18.348;2023-06-14T14:20:32;28.90;59.20
65582;DHT22;52231;40.090;18.348;2023-06-14T14:23:00;28.80;60.00
65582;DHT22;52231;40.090;18.348;2023-06-14T14:25:29;28.80;59.80
65582;DHT22;52231;40.090;18.348;2023-06-14T14:27:57;28.80;60.20
65582;DHT22;52231;40.090;18.348;2023-06-14T14:30:25;29.10;59.30
65582;DHT22;52231;40.090;18.348;2023-06-14T14:32:54;29.20;58.60
65582;DHT22;52231;40.090;18.348;2023-06-14T14:35:22;29.30;58.70
65582;DHT22;52231;40.090;18.348;2023-06-14T14:37:52;29.30;58.40
65582;DHT22;52231;40.090;18.348;2023-06-14T14:40:20;29.30;58.00
65582;DHT22;52231;40.090;18.348;2023-06-14T14:42:49;29.30;58.00
65582;DHT22;52231;40.090;18.348;2023-06-14T14:45:17;29.50;56.20
65582;DHT22;52231;40.090;18.348;2023-06-14T14:47:46;29.50;55.70
65582;DHT22;52231;40.090;18.348;2023-06-14T14:50:14;29.60;54.70
65582;DHT22;52231;40.090;18.348;2023-06-14T14:52:42;30.00;53.90
65582;DHT22;52231;40.090;18.348;2023-06-14T14:55:11;29.70;53.40
65582;DHT22;52231;40.090;18.348;2023-06-14T14:57:38;29.60;53.70
65582;DHT22;52231;40.090;18.348;2023-06-14T15:00:07;29.60;53.70
65582;DHT22;52231;40.090;18.348;2023-06-14T15:02:35;29.40;54.60
65582;DHT22;52231;40.090;18.348;2023-06-14T15:05:04;29.50;54.70
65582;DHT22;52231;40.090;18.348;2023-06-14T15:07:32;29.50;54.60
65582;DHT22;52231;40.090;18.348;2023-06-14T15:10:06;29.40;55.50
65582;DHT22;52231;40.090;18.348;2023-06-14T15:12:35;29.30;55.90
65582;DHT22;52231;40.090;18.348;2023-06-14T15:15:04;29.40;55.30
65582;DHT22;52231;40.090;18.348;2023-06-14T15:17:32;29.50;54.60
65582;DHT22;52231;40.090;18.348;2023-06-14T15:20:01;29.60;54.60
65582;DHT22;52231;40.090;18.348;2023-06-14T15:22:31;29.50;55.00
65582;DHT22;52231;40.090;18.348;2023-06-14T15:25:00;29.30;55.50
65582;DHT22;52231;40.090;18.348;2023-06-14T15:27:28;28.90;56.60
65582;DHT22;52231;40.090;18.348;2023-06-14T15:29:56;28.80;56.80
65582;DHT22;52231;40.090;18.348;2023-06-14T15:32:24;28.60;57.50
65582;DHT22;52231;40.090;18.348;2023-06-14T15:34:53;28.50;58.10
65582;DHT22;52231;40.090;18.348;2023-06-14T15:37:21;28.60;58.40
65582;DHT22;52231;40.090;18.348;2023-06-14T15:39:49;28.60;57.60
65582;DHT22;52231;40.090;18.348;2023-06-14T15:42:17;28.60;57.40
65582;DHT22;52231;40.090;18.348;2023-06-14T15:44:45;28.60;56.90